sensor_id;sensor_type;location;lat;lon;timestamp;P1;durP1;ratioP1;P2;durP2;ratioP2
703;SDS011;335;48.694;9.120;2022-09-03T00:02:35;1.93;;;1.83;;
703;SDS011;335;48.694;9.120;2022-09-03T00:04:41;1.63;;;1.53;;
703;SDS011;335;48.694;9.120;2022-09-03T00:07:23;2.50;;;1.90;;
703;SDS011;335;48.694;9.120;2022-09-03T00:09:55;2.60;;;2.40;;
703;SDS011;335;48.694;9.120;2022-09-03T00:12:28;2.30;;;2.20;;
703;SDS011;335;48.694;9.120;2022-09-03T00:17:27;2.00;;;1.90;;
703;SDS011;335;48.694;9.120;2022-09-03T00:19:59;2.30;;;2.20;;
703;SDS011;335;48.694;9.120;2022-09-03T00:22:32;2.43;;;2.20;;
703;SDS011;335;48.694;9.120;2022-09-03T00:25:01;3.13;;;2.53;;
703;SDS011;335;48.694;9.120;2022-09-03T00:27:28;1.90;;;1.80;;
703;SDS011;335;48.694;9.120;2022-09-03T00:29:57;1.67;;;1.57;;
703;SDS011;335;48.694;9.120;2022-09-03T00:32:38;1.97;;;1.87;;
703;SDS011;335;48.694;9.120;2022-09-03T00:35:08;2.30;;;2.10;;
703;SDS011;335;48.694;9.120;2022-09-03T00:37:37;2.10;;;2.00;;
703;SDS011;335;48.694;9.120;2022-09-03T00:40:04;3.33;;;2.13;;
703;SDS011;335;48.694;9.120;2022-09-03T00:42:45;1.73;;;1.63;;
703;SDS011;335;48.694;9.120;2022-09-03T00:45:39;2.30;;;1.63;;
703;SDS011;335;48.694;9.120;2022-09-03T00:48:12;1.67;;;1.43;;
703;SDS011;335;48.694;9.120;2022-09-03T00:59:27;2.03;;;1.60;;
703;SDS011;335;48.694;9.120;2022-09-03T01:02:14;2.03;;;1.93;;
703;SDS011;335;48.694;9.120;2022-09-03T01:13:09;2.20;;;2.10;;
703;SDS011;335;48.694;9.120;2022-09-03T01:15:52;1.87;;;1.77;;
703;SDS011;335;48.694;9.120;2022-09-03T01:18:42;3.60;;;2.00;;
703;SDS011;335;48.694;9.120;2022-09-03T01:21:38;2.03;;;1.93;;
703;SDS011;335;48.694;9.120;2022-09-03T01:35:47;1.50;;;1.40;;
703;SDS011;335;48.694;9.120;2022-09-03T01:38:31;2.30;;;2.10;;
703;SDS011;335;48.694;9.120;2022-09-03T01:55:32;3.80;;;2.60;;
703;SDS011;335;48.694;9.120;2022-09-03T01:58:23;2.20;;;2.00;;
703;SDS011;335;48.694;9.120;2022-09-03T02:00:54;2.13;;;1.93;;
703;SDS011;335;48.694;9.120;2022-09-03T02:03:40;2.87;;;2.30;;
703;SDS011;335;48.694;9.120;2022-09-03T02:06:07;2.37;;;2.27;;
703;SDS011;335;48.694;9.120;2022-09-03T02:08:33;2.43;;;2.33;;
703;SDS011;335;48.694;9.120;2022-09-03T02:10:58;2.50;;;2.40;;
703;SDS011;335;48.694;9.120;2022-09-03T02:13:31;2.63;;;2.43;;
703;SDS011;335;48.694;9.120;2022-09-03T02:16:02;2.63;;;2.10;;
703;SDS011;335;48.694;9.120;2022-09-03T02:18:36;2.40;;;2.30;;
703;SDS011;335;48.694;9.120;2022-09-03T02:21:07;2.27;;;2.17;;
703;SDS011;335;48.694;9.120;2022-09-03T02:23:34;2.23;;;2.13;;
703;SDS011;335;48.694;9.120;2022-09-03T02:26:00;2.57;;;2.37;;
703;SDS011;335;48.694;9.120;2022-09-03T02:28:27;3.30;;;2.63;;
703;SDS011;335;48.694;9.120;2022-09-03T02:30:53;2.33;;;2.23;;
703;SDS011;335;48.694;9.120;2022-09-03T02:33:18;2.20;;;2.10;;
703;SDS011;335;48.694;9.120;2022-09-03T02:35:44;2.47;;;2.27;;
703;SDS011;335;48.694;9.120;2022-09-03T02:38:14;3.20;;;2.57;;
703;SDS011;335;48.694;9.120;2022-09-03T02:40:44;2.87;;;2.67;;
703;SDS011;335;48.694;9.120;2022-09-03T02:43:15;2.43;;;2.23;;
703;SDS011;335;48.694;9.120;2022-09-03T02:45:46;2.83;;;2.10;;
703;SDS011;335;48.694;9.120;2022-09-03T02:48:13;2.90;;;2.77;;
703;SDS011;335;48.694;9.120;2022-09-03T02:50:41;2.77;;;2.67;;
703;SDS011;335;48.694;9.120;2022-09-03T02:53:07;2.97;;;2.70;;
703;SDS011;335;48.694;9.120;2022-09-03T02:55:33;2.47;;;2.37;;
703;SDS011;335;48.694;9.120;2022-09-03T02:57:58;2.90;;;2.70;;
703;SDS011;335;48.694;9.120;2022-09-03T03:00:24;2.57;;;2.47;;
703;SDS011;335;48.694;9.120;2022-09-03T03:02:50;2.50;;;2.30;;
703;SDS011;335;48.694;9.120;2022-09-03T03:05:17;2.33;;;2.23;;
703;SDS011;335;48.694;9.120;2022-09-03T03:07:49;2.43;;;2.33;;
703;SDS011;335;48.694;9.120;2022-09-03T03:10:14;2.60;;;2.50;;
703;SDS011;335;48.694;9.120;2022-09-03T03:12:40;2.63;;;2.53;;
703;SDS011;335;48.694;9.120;2022-09-03T03:15:05;2.67;;;2.57;;
703;SDS011;335;48.694;9.120;2022-09-03T03:17:30;3.33;;;3.13;;
703;SDS011;335;48.694;9.120;2022-09-03T03:19:56;3.33;;;3.03;;
703;SDS011;335;48.694;9.120;2022-09-03T03:22:21;3.07;;;2.97;;
703;SDS011;335;48.694;9.120;2022-09-03T03:24:46;5.10;;;3.00;;
703;SDS011;335;48.694;9.120;2022-09-03T03:27:14;3.30;;;3.00;;
703;SDS011;335;48.694;9.120;2022-09-03T03:29:40;3.40;;;3.10;;
703;SDS011;335;48.694;9.120;2022-09-03T03:32:05;2.77;;;2.67;;
703;SDS011;335;48.694;9.120;2022-09-03T03:34:30;3.80;;;2.80;;
703;SDS011;335;48.694;9.120;2022-09-03T03:36:56;3.10;;;2.90;;
703;SDS011;335;48.694;9.120;2022-09-03T03:39:21;3.20;;;3.00;;
703;SDS011;335;48.694;9.120;2022-09-03T03:41:46;3.03;;;2.83;;
703;SDS011;335;48.694;9.120;2022-09-03T03:44:12;2.57;;;2.47;;
703;SDS011;335;48.694;9.120;2022-09-03T03:46:38;3.33;;;3.07;;
703;SDS011;335;48.694;9.120;2022-09-03T03:49:05;2.87;;;2.67;;
703;SDS011;335;48.694;9.120;2022-09-03T03:51:31;3.03;;;2.83;;
703;SDS011;335;48.694;9.120;2022-09-03T03:53:57;3.13;;;3.03;;
703;SDS011;335;48.694;9.120;2022-09-03T03:56:23;3.73;;;3.43;;
703;SDS011;335;48.694;9.120;2022-09-03T03:58:50;3.03;;;2.93;;
703;SDS011;335;48.694;9.120;2022-09-03T04:01:20;3.43;;;3.20;;
703;SDS011;335;48.694;9.120;2022-09-03T04:03:47;3.57;;;3.47;;
703;SDS011;335;48.694;9.120;2022-09-03T04:06:14;3.47;;;3.27;;
703;SDS011;335;48.694;9.120;2022-09-03T04:08:41;3.40;;;3.20;;
703;SDS011;335;48.694;9.120;2022-09-03T04:11:08;3.77;;;3.57;;
703;SDS011;335;48.694;9.120;2022-09-03T04:13:36;4.47;;;4.17;;
703;SDS011;335;48.694;9.120;2022-09-03T04:16:03;4.80;;;4.50;;
703;SDS011;335;48.694;9.120;2022-09-03T04:18:30;4.50;;;3.43;;
703;SDS011;335;48.694;9.120;2022-09-03T04:21:06;4.43;;;4.13;;
703;SDS011;335;48.694;9.120;2022-09-03T04:23:34;3.50;;;3.20;;
703;SDS011;335;48.694;9.120;2022-09-03T04:26:00;3.30;;;3.00;;
703;SDS011;335;48.694;9.120;2022-09-03T04:28:26;3.30;;;3.10;;
703;SDS011;335;48.694;9.120;2022-09-03T04:30:52;9.00;;;3.70;;
703;SDS011;335;48.694;9.120;2022-09-03T04:33:18;3.90;;;3.57;;
703;SDS011;335;48.694;9.120;2022-09-03T04:35:43;3.73;;;3.43;;
703;SDS011;335;48.694;9.120;2022-09-03T04:38:09;4.00;;;3.70;;
703;SDS011;335;48.694;9.120;2022-09-03T04:40:37;3.13;;;2.93;;
703;SDS011;335;48.694;9.120;2022-09-03T04:43:02;3.33;;;3.03;;
703;SDS011;335;48.694;9.120;2022-09-03T04:45:28;2.73;;;2.63;;
703;SDS011;335;48.694;9.120;2022-09-03T04:48:00;3.10;;;2.83;;
703;SDS011;335;48.694;9.120;2022-09-03T04:50:27;4.27;;;3.60;;
703;SDS011;335;48.694;9.120;2022-09-03T04:52:53;10.73;;;4.77;;
703;SDS011;335;48.694;9.120;2022-09-03T04:55:20;4.37;;;3.97;;
703;SDS011;335;48.694;9.120;2022-09-03T04:57:46;3.80;;;3.47;;
703;SDS011;335;48.694;9.120;2022-09-03T05:00:11;4.50;;;4.20;;
703;SDS011;335;48.694;9.120;2022-09-03T05:02:37;4.10;;;3.80;;
703;SDS011;335;48.694;9.120;2022-09-03T05:05:03;3.70;;;3.40;;
703;SDS011;335;48.694;9.120;2022-09-03T05:07:29;3.50;;;3.20;;
703;SDS011;335;48.694;9.120;2022-09-03T05:10:02;3.80;;;3.53;;
703;SDS011;335;48.694;9.120;2022-09-03T05:12:32;3.73;;;3.43;;
703;SDS011;335;48.694;9.120;2022-09-03T05:14:57;3.53;;;3.33;;
703;SDS011;335;48.694;9.120;2022-09-03T05:17:24;3.33;;;3.13;;
703;SDS011;335;48.694;9.120;2022-09-03T05:19:49;2.90;;;2.80;;
703;SDS011;335;48.694;9.120;2022-09-03T05:22:15;3.67;;;3.30;;
703;SDS011;335;48.694;9.120;2022-09-03T05:24:45;3.83;;;3.63;;
703;SDS011;335;48.694;9.120;2022-09-03T05:27:13;3.37;;;3.17;;
703;SDS011;335;48.694;9.120;2022-09-03T05:29:40;3.03;;;2.83;;
703;SDS011;335;48.694;9.120;2022-09-03T05:32:09;4.00;;;3.80;;
703;SDS011;335;48.694;9.120;2022-09-03T05:34:35;4.07;;;3.70;;
703;SDS011;335;48.694;9.120;2022-09-03T05:37:00;2.80;;;2.70;;
703;SDS011;335;48.694;9.120;2022-09-03T05:39:26;2.80;;;2.70;;
703;SDS011;335;48.694;9.120;2022-09-03T05:41:51;3.97;;;3.17;;
703;SDS011;335;48.694;9.120;2022-09-03T05:44:17;5.00;;;3.10;;
703;SDS011;335;48.694;9.120;2022-09-03T05:46:43;3.27;;;2.97;;
703;SDS011;335;48.694;9.120;2022-09-03T05:49:08;2.63;;;2.43;;
703;SDS011;335;48.694;9.120;2022-09-03T05:51:35;2.90;;;2.70;;
703;SDS011;335;48.694;9.120;2022-09-03T05:54:03;2.80;;;2.70;;
703;SDS011;335;48.694;9.120;2022-09-03T05:56:29;3.50;;;2.60;;
703;SDS011;335;48.694;9.120;2022-09-03T05:58:56;3.80;;;3.60;;
703;SDS011;335;48.694;9.120;2022-09-03T06:01:26;3.60;;;3.30;;
703;SDS011;335;48.694;9.120;2022-09-03T06:04:02;3.57;;;3.37;;
703;SDS011;335;48.694;9.120;2022-09-03T06:06:30;3.30;;;3.10;;
703;SDS011;335;48.694;9.120;2022-09-03T06:08:57;3.67;;;3.47;;
703;SDS011;335;48.694;9.120;2022-09-03T06:11:24;3.20;;;3.00;;
703;SDS011;335;48.694;9.120;2022-09-03T06:13:57;4.10;;;3.80;;
703;SDS011;335;48.694;9.120;2022-09-03T06:16:25;3.70;;;3.50;;
703;SDS011;335;48.694;9.120;2022-09-03T06:18:51;3.83;;;3.63;;
703;SDS011;335;48.694;9.120;2022-09-03T06:21:17;3.60;;;3.40;;
703;SDS011;335;48.694;9.120;2022-09-03T06:23:47;3.50;;;3.30;;
703;SDS011;335;48.694;9.120;2022-09-03T06:26:15;3.27;;;3.07;;
703;SDS011;335;48.694;9.120;2022-09-03T06:28:41;3.20;;;3.00;;
703;SDS011;335;48.694;9.120;2022-09-03T06:31:09;3.93;;;3.63;;
703;SDS011;335;48.694;9.120;2022-09-03T06:33:36;3.60;;;3.40;;
703;SDS011;335;48.694;9.120;2022-09-03T06:36:03;3.60;;;3.40;;
703;SDS011;335;48.694;9.120;2022-09-03T06:38:30;3.20;;;3.10;;
703;SDS011;335;48.694;9.120;2022-09-03T06:40:58;4.10;;;3.80;;
703;SDS011;335;48.694;9.120;2022-09-03T06:43:28;3.90;;;3.70;;
703;SDS011;335;48.694;9.120;2022-09-03T06:46:05;4.00;;;3.80;;
703;SDS011;335;48.694;9.120;2022-09-03T06:48:35;4.17;;;3.80;;
703;SDS011;335;48.694;9.120;2022-09-03T06:51:04;3.10;;;2.93;;
703;SDS011;335;48.694;9.120;2022-09-03T06:53:35;3.63;;;3.43;;
703;SDS011;335;48.694;9.120;2022-09-03T06:56:06;4.47;;;4.17;;
703;SDS011;335;48.694;9.120;2022-09-03T06:58:37;3.93;;;3.63;;
703;SDS011;335;48.694;9.120;2022-09-03T07:01:10;3.97;;;3.77;;
703;SDS011;335;48.694;9.120;2022-09-03T07:03:37;4.97;;;4.67;;
703;SDS011;335;48.694;9.120;2022-09-03T07:06:04;4.37;;;4.17;;
703;SDS011;335;48.694;9.120;2022-09-03T07:08:31;4.57;;;4.27;;
703;SDS011;335;48.694;9.120;2022-09-03T07:11:01;4.40;;;4.10;;
703;SDS011;335;48.694;9.120;2022-09-03T07:13:32;4.17;;;3.97;;
703;SDS011;335;48.694;9.120;2022-09-03T07:16:04;3.77;;;3.57;;
703;SDS011;335;48.694;9.120;2022-09-03T07:18:30;3.40;;;3.30;;
703;SDS011;335;48.694;9.120;2022-09-03T07:20:57;4.40;;;4.00;;
703;SDS011;335;48.694;9.120;2022-09-03T07:23:26;3.87;;;3.57;;
703;SDS011;335;48.694;9.120;2022-09-03T07:25:53;3.30;;;3.20;;
703;SDS011;335;48.694;9.120;2022-09-03T07:28:19;3.80;;;3.50;;
703;SDS011;335;48.694;9.120;2022-09-03T07:30:45;3.13;;;3.00;;
703;SDS011;335;48.694;9.120;2022-09-03T07:33:10;3.13;;;2.93;;
703;SDS011;335;48.694;9.120;2022-09-03T07:35:37;2.60;;;2.50;;
703;SDS011;335;48.694;9.120;2022-09-03T07:38:02;3.10;;;2.90;;
703;SDS011;335;48.694;9.120;2022-09-03T07:40:28;3.30;;;3.10;;
703;SDS011;335;48.694;9.120;2022-09-03T07:42:56;4.17;;;3.87;;
703;SDS011;335;48.694;9.120;2022-09-03T07:45:26;3.03;;;2.93;;
703;SDS011;335;48.694;9.120;2022-09-03T07:47:52;3.73;;;2.80;;
703;SDS011;335;48.694;9.120;2022-09-03T07:50:18;3.37;;;3.23;;
703;SDS011;335;48.694;9.120;2022-09-03T07:52:44;3.30;;;3.20;;
703;SDS011;335;48.694;9.120;2022-09-03T07:55:09;3.13;;;3.03;;
703;SDS011;335;48.694;9.120;2022-09-03T07:57:35;3.47;;;3.27;;
703;SDS011;335;48.694;9.120;2022-09-03T08:00:00;3.10;;;3.00;;
703;SDS011;335;48.694;9.120;2022-09-03T08:02:26;2.83;;;2.73;;
703;SDS011;335;48.694;9.120;2022-09-03T08:04:51;2.73;;;2.63;;
703;SDS011;335;48.694;9.120;2022-09-03T08:07:17;3.50;;;3.30;;
703;SDS011;335;48.694;9.120;2022-09-03T08:09:42;3.60;;;3.43;;
703;SDS011;335;48.694;9.120;2022-09-03T08:12:07;3.00;;;2.83;;
703;SDS011;335;48.694;9.120;2022-09-03T08:14:33;2.93;;;2.70;;
703;SDS011;335;48.694;9.120;2022-09-03T08:16:58;2.60;;;2.50;;
703;SDS011;335;48.694;9.120;2022-09-03T08:19:24;2.73;;;2.57;;
703;SDS011;335;48.694;9.120;2022-09-03T08:21:49;2.33;;;2.23;;
703;SDS011;335;48.694;9.120;2022-09-03T08:24:15;2.20;;;2.10;;
703;SDS011;335;48.694;9.120;2022-09-03T08:26:43;2.67;;;2.53;;
703;SDS011;335;48.694;9.120;2022-09-03T08:29:08;2.57;;;2.47;;
703;SDS011;335;48.694;9.120;2022-09-03T08:31:34;2.53;;;2.43;;
703;SDS011;335;48.694;9.120;2022-09-03T08:34:00;2.40;;;2.30;;
703;SDS011;335;48.694;9.120;2022-09-03T08:36:30;2.00;;;1.90;;
703;SDS011;335;48.694;9.120;2022-09-03T08:38:58;1.93;;;1.83;;
703;SDS011;335;48.694;9.120;2022-09-03T08:49:16;2.13;;;2.03;;
703;SDS011;335;48.694;9.120;2022-09-03T08:51:45;2.77;;;2.67;;
703;SDS011;335;48.694;9.120;2022-09-03T08:54:13;2.37;;;2.27;;
703;SDS011;335;48.694;9.120;2022-09-03T08:56:39;2.37;;;2.27;;
703;SDS011;335;48.694;9.120;2022-09-03T08:59:06;2.87;;;2.77;;
703;SDS011;335;48.694;9.120;2022-09-03T09:07:10;3.00;;;2.80;;
703;SDS011;335;48.694;9.120;2022-09-03T09:15:05;3.10;;;2.90;;
703;SDS011;335;48.694;9.120;2022-09-03T09:20:50;2.67;;;2.57;;
703;SDS011;335;48.694;9.120;2022-09-03T09:23:39;2.83;;;2.07;;
703;SDS011;335;48.694;9.120;2022-09-03T09:26:08;2.50;;;2.40;;
703;SDS011;335;48.694;9.120;2022-09-03T09:28:36;2.70;;;2.60;;
703;SDS011;335;48.694;9.120;2022-09-03T09:31:04;2.50;;;2.40;;
703;SDS011;335;48.694;9.120;2022-09-03T09:33:32;2.87;;;2.77;;
703;SDS011;335;48.694;9.120;2022-09-03T09:35:59;2.47;;;2.37;;
703;SDS011;335;48.694;9.120;2022-09-03T09:38:31;2.67;;;2.47;;
703;SDS011;335;48.694;9.120;2022-09-03T09:41:11;1.83;;;1.83;;
703;SDS011;335;48.694;9.120;2022-09-03T09:43:42;2.20;;;2.10;;
703;SDS011;335;48.694;9.120;2022-09-03T09:46:11;2.30;;;2.20;;
703;SDS011;335;48.694;9.120;2022-09-03T09:48:50;1.73;;;1.73;;
703;SDS011;335;48.694;9.120;2022-09-03T09:51:23;2.20;;;2.10;;
703;SDS011;335;48.694;9.120;2022-09-03T09:54:03;2.20;;;2.00;;
703;SDS011;335;48.694;9.120;2022-09-03T09:56:44;2.70;;;2.57;;
703;SDS011;335;48.694;9.120;2022-09-03T09:59:13;2.03;;;1.93;;
703;SDS011;335;48.694;9.120;2022-09-03T10:01:40;2.40;;;2.30;;
703;SDS011;335;48.694;9.120;2022-09-03T10:06:52;2.63;;;2.43;;
703;SDS011;335;48.694;9.120;2022-09-03T10:09:28;2.60;;;2.50;;
703;SDS011;335;48.694;9.120;2022-09-03T10:12:23;2.80;;;2.70;;
703;SDS011;335;48.694;9.120;2022-09-03T10:15:07;3.10;;;2.90;;
703;SDS011;335;48.694;9.120;2022-09-03T10:21:07;3.20;;;3.10;;
703;SDS011;335;48.694;9.120;2022-09-03T10:24:04;3.27;;;2.77;;
703;SDS011;335;48.694;9.120;2022-09-03T10:26:39;2.53;;;2.43;;
703;SDS011;335;48.694;9.120;2022-09-03T10:29:08;3.37;;;2.40;;
703;SDS011;335;48.694;9.120;2022-09-03T10:31:52;2.60;;;2.50;;
703;SDS011;335;48.694;9.120;2022-09-03T10:34:21;3.30;;;3.00;;
703;SDS011;335;48.694;9.120;2022-09-03T10:37:01;3.37;;;3.17;;
703;SDS011;335;48.694;9.120;2022-09-03T10:42:34;3.53;;;3.23;;
703;SDS011;335;48.694;9.120;2022-09-03T10:45:06;2.40;;;2.30;;
703;SDS011;335;48.694;9.120;2022-09-03T10:50:46;2.40;;;2.30;;
703;SDS011;335;48.694;9.120;2022-09-03T10:53:20;2.93;;;2.83;;
703;SDS011;335;48.694;9.120;2022-09-03T11:04:50;2.70;;;2.60;;
703;SDS011;335;48.694;9.120;2022-09-03T11:07:19;2.40;;;2.30;;
703;SDS011;335;48.694;9.120;2022-09-03T11:09:47;4.13;;;3.93;;
703;SDS011;335;48.694;9.120;2022-09-03T11:14:50;3.07;;;2.97;;
703;SDS011;335;48.694;9.120;2022-09-03T11:17:28;4.00;;;3.80;;
703;SDS011;335;48.694;9.120;2022-09-03T11:20:05;3.13;;;3.00;;
703;SDS011;335;48.694;9.120;2022-09-03T11:22:38;3.40;;;3.30;;
703;SDS011;335;48.694;9.120;2022-09-03T11:25:05;3.60;;;3.40;;
703;SDS011;335;48.694;9.120;2022-09-03T11:27:55;3.73;;;3.43;;
703;SDS011;335;48.694;9.120;2022-09-03T11:33:20;4.60;;;4.37;;
703;SDS011;335;48.694;9.120;2022-09-03T11:35:53;4.10;;;3.90;;
703;SDS011;335;48.694;9.120;2022-09-03T11:38:27;4.13;;;3.90;;
703;SDS011;335;48.694;9.120;2022-09-03T11:41:21;3.60;;;3.40;;
703;SDS011;335;48.694;9.120;2022-09-03T11:43:50;4.30;;;3.90;;
703;SDS011;335;48.694;9.120;2022-09-03T11:48:47;4.13;;;3.90;;
703;SDS011;335;48.694;9.120;2022-09-03T11:53:58;3.90;;;3.70;;
703;SDS011;335;48.694;9.120;2022-09-03T11:56:26;4.30;;;4.00;;
703;SDS011;335;48.694;9.120;2022-09-03T11:59:14;5.20;;;4.67;;
703;SDS011;335;48.694;9.120;2022-09-03T12:01:43;6.70;;;5.30;;
703;SDS011;335;48.694;9.120;2022-09-03T12:04:14;5.03;;;4.73;;
703;SDS011;335;48.694;9.120;2022-09-03T12:12:26;4.93;;;3.83;;
703;SDS011;335;48.694;9.120;2022-09-03T12:15:07;3.30;;;3.20;;
703;SDS011;335;48.694;9.120;2022-09-03T12:17:52;3.70;;;3.50;;
703;SDS011;335;48.694;9.120;2022-09-03T12:20:39;4.90;;;4.10;;
703;SDS011;335;48.694;9.120;2022-09-03T12:23:05;3.60;;;3.33;;
703;SDS011;335;48.694;9.120;2022-09-03T12:25:31;4.47;;;2.63;;
703;SDS011;335;48.694;9.120;2022-09-03T12:27:56;6.13;;;2.87;;
703;SDS011;335;48.694;9.120;2022-09-03T12:30:24;6.73;;;3.00;;
703;SDS011;335;48.694;9.120;2022-09-03T12:32:50;3.10;;;2.30;;
703;SDS011;335;48.694;9.120;2022-09-03T12:35:28;2.70;;;2.30;;
703;SDS011;335;48.694;9.120;2022-09-03T12:37:54;2.60;;;2.40;;
703;SDS011;335;48.694;9.120;2022-09-03T12:40:23;2.43;;;2.33;;
703;SDS011;335;48.694;9.120;2022-09-03T12:42:53;3.47;;;3.00;;
703;SDS011;335;48.694;9.120;2022-09-03T12:45:20;2.10;;;2.00;;
703;SDS011;335;48.694;9.120;2022-09-03T12:47:50;2.23;;;1.93;;
703;SDS011;335;48.694;9.120;2022-09-03T12:50:22;1.90;;;1.80;;
703;SDS011;335;48.694;9.120;2022-09-03T12:52:50;1.83;;;1.73;;
703;SDS011;335;48.694;9.120;2022-09-03T13:01:19;1.97;;;1.87;;
703;SDS011;335;48.694;9.120;2022-09-03T13:04:04;1.93;;;1.83;;
703;SDS011;335;48.694;9.120;2022-09-03T13:09:24;1.43;;;1.37;;
703;SDS011;335;48.694;9.120;2022-09-03T13:11:51;1.53;;;1.43;;
703;SDS011;335;48.694;9.120;2022-09-03T13:14:19;2.10;;;1.57;;
703;SDS011;335;48.694;9.120;2022-09-03T13:30:18;1.30;;;1.30;;
703;SDS011;335;48.694;9.120;2022-09-03T13:32:53;1.53;;;1.27;;
703;SDS011;335;48.694;9.120;2022-09-03T13:35:26;1.47;;;1.37;;
703;SDS011;335;48.694;9.120;2022-09-03T13:40:59;1.37;;;1.27;;
703;SDS011;335;48.694;9.120;2022-09-03T13:43:32;2.67;;;1.20;;
703;SDS011;335;48.694;9.120;2022-09-03T13:46:16;1.43;;;1.23;;
703;SDS011;335;48.694;9.120;2022-09-03T13:48:47;1.40;;;1.30;;
703;SDS011;335;48.694;9.120;2022-09-03T13:51:54;1.90;;;1.30;;
703;SDS011;335;48.694;9.120;2022-09-03T13:54:22;1.33;;;1.20;;
703;SDS011;335;48.694;9.120;2022-09-03T13:56:59;1.93;;;1.83;;
703;SDS011;335;48.694;9.120;2022-09-03T14:02:08;1.83;;;1.40;;
703;SDS011;335;48.694;9.120;2022-09-03T14:16:29;1.10;;;1.00;;
703;SDS011;335;48.694;9.120;2022-09-03T14:19:04;1.10;;;1.00;;
703;SDS011;335;48.694;9.120;2022-09-03T14:21:42;1.03;;;0.77;;
703;SDS011;335;48.694;9.120;2022-09-03T14:24:14;1.20;;;1.20;;
703;SDS011;335;48.694;9.120;2022-09-03T14:26:51;1.30;;;1.20;;
703;SDS011;335;48.694;9.120;2022-09-03T14:29:22;0.80;;;0.80;;
703;SDS011;335;48.694;9.120;2022-09-03T14:32:00;1.10;;;0.70;;
703;SDS011;335;48.694;9.120;2022-09-03T14:34:37;1.33;;;1.20;;
703;SDS011;335;48.694;9.120;2022-09-03T14:37:14;1.00;;;1.00;;
703;SDS011;335;48.694;9.120;2022-09-03T14:42:39;1.17;;;1.17;;
703;SDS011;335;48.694;9.120;2022-09-03T14:50:51;1.67;;;1.47;;
703;SDS011;335;48.694;9.120;2022-09-03T14:53:39;3.30;;;1.50;;
703;SDS011;335;48.694;9.120;2022-09-03T15:01:42;2.93;;;0.90;;
703;SDS011;335;48.694;9.120;2022-09-03T15:04:50;2.40;;;0.97;;
703;SDS011;335;48.694;9.120;2022-09-03T15:07:29;1.20;;;1.10;;
703;SDS011;335;48.694;9.120;2022-09-03T15:15:17;1.60;;;1.50;;
703;SDS011;335;48.694;9.120;2022-09-03T15:17:48;1.60;;;1.50;;
703;SDS011;335;48.694;9.120;2022-09-03T15:20:25;3.23;;;1.30;;
703;SDS011;335;48.694;9.120;2022-09-03T15:25:34;1.40;;;1.30;;
703;SDS011;335;48.694;9.120;2022-09-03T15:28:17;1.30;;;1.20;;
703;SDS011;335;48.694;9.120;2022-09-03T15:33:34;1.80;;;1.70;;
703;SDS011;335;48.694;9.120;2022-09-03T15:38:49;1.50;;;1.40;;
703;SDS011;335;48.694;9.120;2022-09-03T15:41:23;1.70;;;1.60;;
703;SDS011;335;48.694;9.120;2022-09-03T15:43:57;1.20;;;1.20;;
703;SDS011;335;48.694;9.120;2022-09-03T15:46:29;2.00;;;1.40;;
703;SDS011;335;48.694;9.120;2022-09-03T15:49:07;1.27;;;1.17;;
703;SDS011;335;48.694;9.120;2022-09-03T15:51:42;1.77;;;1.67;;
703;SDS011;335;48.694;9.120;2022-09-03T15:54:20;1.73;;;1.67;;
703;SDS011;335;48.694;9.120;2022-09-03T15:57:02;1.50;;;1.40;;
703;SDS011;335;48.694;9.120;2022-09-03T16:02:45;1.57;;;1.50;;
703;SDS011;335;48.694;9.120;2022-09-03T16:05:24;1.70;;;1.60;;
703;SDS011;335;48.694;9.120;2022-09-03T16:10:53;1.87;;;1.77;;
703;SDS011;335;48.694;9.120;2022-09-03T16:16:51;1.87;;;1.77;;
703;SDS011;335;48.694;9.120;2022-09-03T16:21:44;1.73;;;1.63;;
703;SDS011;335;48.694;9.120;2022-09-03T16:24:16;1.90;;;1.80;;
703;SDS011;335;48.694;9.120;2022-09-03T16:26:49;1.40;;;1.30;;
703;SDS011;335;48.694;9.120;2022-09-03T16:29:18;1.70;;;1.60;;
703;SDS011;335;48.694;9.120;2022-09-03T16:37:51;2.10;;;2.00;;
703;SDS011;335;48.694;9.120;2022-09-03T16:40:45;1.83;;;1.70;;
703;SDS011;335;48.694;9.120;2022-09-03T16:43:24;2.57;;;2.47;;
703;SDS011;335;48.694;9.120;2022-09-03T16:51:46;1.60;;;1.50;;
703;SDS011;335;48.694;9.120;2022-09-03T16:59:56;2.10;;;2.00;;
703;SDS011;335;48.694;9.120;2022-09-03T17:20:07;1.80;;;1.70;;
703;SDS011;335;48.694;9.120;2022-09-03T17:25:35;1.60;;;1.50;;
703;SDS011;335;48.694;9.120;2022-09-03T17:28:52;2.47;;;1.77;;
703;SDS011;335;48.694;9.120;2022-09-03T17:30:56;1.47;;;1.43;;
703;SDS011;335;48.694;9.120;2022-09-03T17:36:26;1.60;;;1.50;;
703;SDS011;335;48.694;9.120;2022-09-03T17:50:06;2.00;;;1.40;;
703;SDS011;335;48.694;9.120;2022-09-03T17:52:46;1.33;;;1.33;;
703;SDS011;335;48.694;9.120;2022-09-03T17:58:10;1.87;;;1.70;;
703;SDS011;335;48.694;9.120;2022-09-03T18:06:26;2.77;;;2.57;;
703;SDS011;335;48.694;9.120;2022-09-03T18:08:52;2.43;;;2.33;;
703;SDS011;335;48.694;9.120;2022-09-03T18:11:27;2.37;;;2.17;;
703;SDS011;335;48.694;9.120;2022-09-03T18:14:07;2.20;;;2.10;;
703;SDS011;335;48.694;9.120;2022-09-03T18:16:58;2.40;;;2.30;;
703;SDS011;335;48.694;9.120;2022-09-03T18:20:29;2.50;;;2.33;;
703;SDS011;335;48.694;9.120;2022-09-03T18:23:00;2.47;;;2.27;;
703;SDS011;335;48.694;9.120;2022-09-03T18:25:47;3.23;;;2.73;;
703;SDS011;335;48.694;9.120;2022-09-03T18:29:08;2.87;;;2.67;;
703;SDS011;335;48.694;9.120;2022-09-03T18:31:44;2.83;;;2.63;;
703;SDS011;335;48.694;9.120;2022-09-03T18:34:32;2.93;;;2.77;;
703;SDS011;335;48.694;9.120;2022-09-03T18:37:19;2.37;;;2.27;;
703;SDS011;335;48.694;9.120;2022-09-03T18:40:05;2.87;;;2.67;;
703;SDS011;335;48.694;9.120;2022-09-03T18:46:01;3.33;;;3.13;;
703;SDS011;335;48.694;9.120;2022-09-03T18:48:54;3.20;;;3.00;;
703;SDS011;335;48.694;9.120;2022-09-03T18:51:58;3.93;;;3.63;;
703;SDS011;335;48.694;9.120;2022-09-03T19:00:38;2.60;;;2.50;;
703;SDS011;335;48.694;9.120;2022-09-03T19:13:07;2.50;;;2.40;;
703;SDS011;335;48.694;9.120;2022-09-03T19:15:59;2.70;;;2.50;;
703;SDS011;335;48.694;9.120;2022-09-03T19:22:14;3.17;;;2.97;;
703;SDS011;335;48.694;9.120;2022-09-03T19:25:11;3.70;;;2.97;;
703;SDS011;335;48.694;9.120;2022-09-03T19:33:53;2.97;;;2.87;;
703;SDS011;335;48.694;9.120;2022-09-03T19:49:06;3.03;;;2.83;;
703;SDS011;335;48.694;9.120;2022-09-03T19:54:54;3.47;;;3.23;;
703;SDS011;335;48.694;9.120;2022-09-03T19:57:40;3.37;;;3.17;;
703;SDS011;335;48.694;9.120;2022-09-03T20:00:25;3.40;;;3.10;;
703;SDS011;335;48.694;9.120;2022-09-03T20:03:10;3.20;;;3.00;;
703;SDS011;335;48.694;9.120;2022-09-03T20:05:56;3.30;;;3.17;;
703;SDS011;335;48.694;9.120;2022-09-03T20:08:40;3.40;;;3.20;;
703;SDS011;335;48.694;9.120;2022-09-03T20:11:24;4.00;;;3.30;;
703;SDS011;335;48.694;9.120;2022-09-03T20:13:52;3.40;;;3.20;;
703;SDS011;335;48.694;9.120;2022-09-03T20:28:18;3.33;;;3.13;;
703;SDS011;335;48.694;9.120;2022-09-03T20:30:56;3.60;;;3.40;;
703;SDS011;335;48.694;9.120;2022-09-03T20:33:35;3.10;;;2.90;;
703;SDS011;335;48.694;9.120;2022-09-03T20:41:54;6.03;;;3.70;;
703;SDS011;335;48.694;9.120;2022-09-03T20:44:39;5.13;;;3.17;;
703;SDS011;335;48.694;9.120;2022-09-03T20:47:23;3.30;;;3.10;;
703;SDS011;335;48.694;9.120;2022-09-03T20:50:12;5.47;;;3.37;;
703;SDS011;335;48.694;9.120;2022-09-03T20:52:54;3.73;;;3.20;;
703;SDS011;335;48.694;9.120;2022-09-03T20:55:48;2.80;;;2.70;;
703;SDS011;335;48.694;9.120;2022-09-03T20:58:18;2.87;;;2.67;;
703;SDS011;335;48.694;9.120;2022-09-03T21:04:02;3.90;;;3.60;;
703;SDS011;335;48.694;9.120;2022-09-03T21:06:52;4.97;;;3.07;;
703;SDS011;335;48.694;9.120;2022-09-03T21:09:26;3.07;;;2.53;;
703;SDS011;335;48.694;9.120;2022-09-03T21:12:13;7.90;;;3.30;;
703;SDS011;335;48.694;9.120;2022-09-03T21:18:04;3.47;;;3.10;;
703;SDS011;335;48.694;9.120;2022-09-03T21:23:13;3.33;;;3.10;;
703;SDS011;335;48.694;9.120;2022-09-03T21:25:51;3.77;;;3.57;;
703;SDS011;335;48.694;9.120;2022-09-03T21:28:24;3.13;;;2.90;;
703;SDS011;335;48.694;9.120;2022-09-03T21:31:00;3.70;;;3.50;;
703;SDS011;335;48.694;9.120;2022-09-03T21:33:28;5.90;;;3.13;;
703;SDS011;335;48.694;9.120;2022-09-03T21:36:02;4.00;;;3.80;;